sensor_id;sensor_type;location;lat;lon;timestamp;temperature;humidity
18658;DHT22;9458;50.942;5.074;2022-10-29T00:00:48;16.80;99.90
18658;DHT22;9458;50.942;5.074;2022-10-29T00:03:22;16.80;99.90
18658;DHT22;9458;50.942;5.074;2022-10-29T00:05:56;16.80;99.90
18658;DHT22;9458;50.942;5.074;2022-10-29T00:08:28;16.80;99.90
18658;DHT22;9458;50.942;5.074;2022-10-29T00:11:04;16.80;99.90
18658;DHT22;9458;50.942;5.074;2022-10-29T00:13:34;16.70;99.90
18658;DHT22;9458;50.942;5.074;2022-10-29T00:16:05;16.70;99.90
18658;DHT22;9458;50.942;5.074;2022-10-29T00:18:33;16.70;99.90
18658;DHT22;9458;50.942;5.074;2022-10-29T00:21:05;16.70;99.90
18658;DHT22;9458;50.942;5.074;2022-10-29T00:23:40;16.70;99.90
18658;DHT22;9458;50.942;5.074;2022-10-29T00:26:09;16.70;99.90
18658;DHT22;9458;50.942;5.074;2022-10-29T00:28:43;16.70;99.90
18658;DHT22;9458;50.942;5.074;2022-10-29T00:31:16;16.60;99.90
18658;DHT22;9458;50.942;5.074;2022-10-29T00:33:47;16.60;99.90
18658;DHT22;9458;50.942;5.074;2022-10-29T00:36:18;16.60;99.90
18658;DHT22;9458;50.942;5.074;2022-10-29T00:38:48;16.60;99.90
18658;DHT22;9458;50.942;5.074;2022-10-29T00:41:18;16.60;99.90
18658;DHT22;9458;50.942;5.074;2022-10-29T00:43:48;16.60;99.90
18658;DHT22;9458;50.942;5.074;2022-10-29T00:46:29;16.60;99.90
18658;DHT22;9458;50.942;5.074;2022-10-29T00:48:59;16.60;99.90
18658;DHT22;9458;50.942;5.074;2022-10-29T00:51:30;16.60;99.90
18658;DHT22;9458;50.942;5.074;2022-10-29T00:54:02;16.50;99.90
18658;DHT22;9458;50.942;5.074;2022-10-29T00:56:34;16.50;99.90
18658;DHT22;9458;50.942;5.074;2022-10-29T00:59:04;16.50;99.90
18658;DHT22;9458;50.942;5.074;2022-10-29T01:01:32;16.50;99.90
18658;DHT22;9458;50.942;5.074;2022-10-29T01:04:00;16.50;99.90
18658;DHT22;9458;50.942;5.074;2022-10-29T01:06:30;16.50;99.90
18658;DHT22;9458;50.942;5.074;2022-10-29T01:08:59;16.40;99.90
18658;DHT22;9458;50.942;5.074;2022-10-29T01:11:39;16.40;99.90
18658;DHT22;9458;50.942;5.074;2022-10-29T01:14:18;16.40;99.90
18658;DHT22;9458;50.942;5.074;2022-10-29T01:16:51;16.40;99.90
18658;DHT22;9458;50.942;5.074;2022-10-29T01:22:23;16.40;99.90
18658;DHT22;9458;50.942;5.074;2022-10-29T01:25:11;16.40;99.90
18658;DHT22;9458;50.942;5.074;2022-10-29T01:28:05;16.40;99.90
18658;DHT22;9458;50.942;5.074;2022-10-29T01:31:07;16.30;99.90
18658;DHT22;9458;50.942;5.074;2022-10-29T01:33:47;16.30;99.90
18658;DHT22;9458;50.942;5.074;2022-10-29T01:36:28;16.30;99.90
18658;DHT22;9458;50.942;5.074;2022-10-29T01:39:04;16.30;99.90
18658;DHT22;9458;50.942;5.074;2022-10-29T01:41:48;16.30;99.90
18658;DHT22;9458;50.942;5.074;2022-10-29T01:44:32;16.30;99.90
18658;DHT22;9458;50.942;5.074;2022-10-29T01:47:12;16.30;99.90
18658;DHT22;9458;50.942;5.074;2022-10-29T01:49:46;16.30;99.90
18658;DHT22;9458;50.942;5.074;2022-10-29T01:52:22;16.20;99.90
18658;DHT22;9458;50.942;5.074;2022-10-29T01:54:52;16.20;99.90
18658;DHT22;9458;50.942;5.074;2022-10-29T01:57:29;16.20;99.90
18658;DHT22;9458;50.942;5.074;2022-10-29T02:00:04;16.20;99.90
18658;DHT22;9458;50.942;5.074;2022-10-29T02:02:59;16.20;99.90
18658;DHT22;9458;50.942;5.074;2022-10-29T02:05:34;16.20;99.90
18658;DHT22;9458;50.942;5.074;2022-10-29T02:08:16;16.20;99.90
18658;DHT22;9458;50.942;5.074;2022-10-29T02:10:56;16.20;99.90
18658;DHT22;9458;50.942;5.074;2022-10-29T02:13:36;16.20;99.90
18658;DHT22;9458;50.942;5.074;2022-10-29T02:16:08;16.20;99.90
18658;DHT22;9458;50.942;5.074;2022-10-29T02:18:48;16.20;99.90
18658;DHT22;9458;50.942;5.074;2022-10-29T02:21:19;16.20;99.90
18658;DHT22;9458;50.942;5.074;2022-10-29T02:23:52;16.20;99.90
18658;DHT22;9458;50.942;5.074;2022-10-29T02:26:21;16.20;99.90
18658;DHT22;9458;50.942;5.074;2022-10-29T02:28:52;16.20;99.90
18658;DHT22;9458;50.942;5.074;2022-10-29T02:31:23;16.10;99.90
18658;DHT22;9458;50.942;5.074;2022-10-29T02:33:57;16.10;99.90
18658;DHT22;9458;50.942;5.074;2022-10-29T02:36:28;16.10;99.90
18658;DHT22;9458;50.942;5.074;2022-10-29T02:39:00;16.10;99.90
18658;DHT22;9458;50.942;5.074;2022-10-29T02:41:30;16.00;99.90
18658;DHT22;9458;50.942;5.074;2022-10-29T02:44:00;16.00;99.90
18658;DHT22;9458;50.942;5.074;2022-10-29T02:46:32;16.00;99.90
18658;DHT22;9458;50.942;5.074;2022-10-29T02:49:10;15.90;99.90
18658;DHT22;9458;50.942;5.074;2022-10-29T02:51:42;15.90;99.90
18658;DHT22;9458;50.942;5.074;2022-10-29T02:54:13;15.90;99.90
18658;DHT22;9458;50.942;5.074;2022-10-29T02:56:43;15.90;99.90
18658;DHT22;9458;50.942;5.074;2022-10-29T02:59:16;15.90;99.90
18658;DHT22;9458;50.942;5.074;2022-10-29T03:01:46;15.80;99.90
18658;DHT22;9458;50.942;5.074;2022-10-29T03:04:18;15.80;99.90
18658;DHT22;9458;50.942;5.074;2022-10-29T03:06:49;15.80;99.90
18658;DHT22;9458;50.942;5.074;2022-10-29T03:09:23;15.80;99.90
18658;DHT22;9458;50.942;5.074;2022-10-29T03:11:53;15.80;99.90
18658;DHT22;9458;50.942;5.074;2022-10-29T03:14:25;15.80;99.90
18658;DHT22;9458;50.942;5.074;2022-10-29T03:16:55;15.90;99.90
18658;DHT22;9458;50.942;5.074;2022-10-29T03:19:27;15.90;99.90
18658;DHT22;9458;50.942;5.074;2022-10-29T03:21:57;15.90;99.90
18658;DHT22;9458;50.942;5.074;2022-10-29T03:24:29;15.90;99.90
18658;DHT22;9458;50.942;5.074;2022-10-29T03:27:00;15.90;99.90
18658;DHT22;9458;50.942;5.074;2022-10-29T03:29:34;15.90;99.90
18658;DHT22;9458;50.942;5.074;2022-10-29T03:32:05;15.90;99.90
18658;DHT22;9458;50.942;5.074;2022-10-29T03:34:38;15.90;99.90
18658;DHT22;9458;50.942;5.074;2022-10-29T03:37:08;15.90;99.90
18658;DHT22;9458;50.942;5.074;2022-10-29T03:39:38;15.90;99.90
18658;DHT22;9458;50.942;5.074;2022-10-29T03:42:10;15.90;99.90
18658;DHT22;9458;50.942;5.074;2022-10-29T03:44:42;15.90;99.90
18658;DHT22;9458;50.942;5.074;2022-10-29T03:47:15;15.90;99.90
18658;DHT22;9458;50.942;5.074;2022-10-29T03:49:49;15.90;99.90
18658;DHT22;9458;50.942;5.074;2022-10-29T03:52:22;15.90;99.90
18658;DHT22;9458;50.942;5.074;2022-10-29T03:54:54;15.90;99.90
18658;DHT22;9458;50.942;5.074;2022-10-29T03:57:24;15.90;99.90
18658;DHT22;9458;50.942;5.074;2022-10-29T03:59:55;16.00;99.90
18658;DHT22;9458;50.942;5.074;2022-10-29T04:02:27;15.90;99.90
18658;DHT22;9458;50.942;5.074;2022-10-29T04:05:00;15.90;99.90
18658;DHT22;9458;50.942;5.074;2022-10-29T04:07:31;15.90;99.90
18658;DHT22;9458;50.942;5.074;2022-10-29T04:10:04;15.90;99.90
18658;DHT22;9458;50.942;5.074;2022-10-29T04:12:33;15.90;99.90
18658;DHT22;9458;50.942;5.074;2022-10-29T04:15:06;15.90;99.90
18658;DHT22;9458;50.942;5.074;2022-10-29T04:17:39;15.90;99.90
18658;DHT22;9458;50.942;5.074;2022-10-29T04:20:11;15.90;99.90
18658;DHT22;9458;50.942;5.074;2022-10-29T04:22:49;15.90;99.90
18658;DHT22;9458;50.942;5.074;2022-10-29T04:25:19;15.90;99.90
18658;DHT22;9458;50.942;5.074;2022-10-29T04:27:53;15.90;99.90
18658;DHT22;9458;50.942;5.074;2022-10-29T04:30:24;16.00;99.90
18658;DHT22;9458;50.942;5.074;2022-10-29T04:32:55;16.00;99.90
18658;DHT22;9458;50.942;5.074;2022-10-29T04:35:30;16.00;99.90
18658;DHT22;9458;50.942;5.074;2022-10-29T04:38:07;16.00;99.90
18658;DHT22;9458;50.942;5.074;2022-10-29T04:40:39;16.00;99.90
18658;DHT22;9458;50.942;5.074;2022-10-29T04:43:11;16.00;99.90
18658;DHT22;9458;50.942;5.074;2022-10-29T04:45:50;16.00;99.90
18658;DHT22;9458;50.942;5.074;2022-10-29T04:48:24;16.00;99.90
18658;DHT22;9458;50.942;5.074;2022-10-29T04:50:58;16.00;99.90
18658;DHT22;9458;50.942;5.074;2022-10-29T04:53:30;16.00;99.90
18658;DHT22;9458;50.942;5.074;2022-10-29T04:56:03;15.90;99.90
18658;DHT22;9458;50.942;5.074;2022-10-29T04:58:35;16.00;99.90
18658;DHT22;9458;50.942;5.074;2022-10-29T05:01:06;16.00;99.90
18658;DHT22;9458;50.942;5.074;2022-10-29T05:03:36;16.00;99.90
18658;DHT22;9458;50.942;5.074;2022-10-29T05:06:09;15.90;99.90
18658;DHT22;9458;50.942;5.074;2022-10-29T05:08:44;15.90;99.90
18658;DHT22;9458;50.942;5.074;2022-10-29T05:11:15;15.90;99.90
18658;DHT22;9458;50.942;5.074;2022-10-29T05:13:51;16.00;99.90
18658;DHT22;9458;50.942;5.074;2022-10-29T05:16:23;16.00;99.90
18658;DHT22;9458;50.942;5.074;2022-10-29T05:18:56;16.00;99.90
18658;DHT22;9458;50.942;5.074;2022-10-29T05:21:30;16.00;99.90
18658;DHT22;9458;50.942;5.074;2022-10-29T05:24:04;16.00;99.90
18658;DHT22;9458;50.942;5.074;2022-10-29T05:26:41;15.90;99.90
18658;DHT22;9458;50.942;5.074;2022-10-29T05:29:14;15.90;99.90
18658;DHT22;9458;50.942;5.074;2022-10-29T05:31:48;15.90;99.90
18658;DHT22;9458;50.942;5.074;2022-10-29T05:34:22;15.90;99.90
18658;DHT22;9458;50.942;5.074;2022-10-29T05:37:00;15.90;99.90
18658;DHT22;9458;50.942;5.074;2022-10-29T05:39:37;15.90;99.90
18658;DHT22;9458;50.942;5.074;2022-10-29T05:42:14;15.90;99.90
18658;DHT22;9458;50.942;5.074;2022-10-29T05:44:52;15.90;99.90
18658;DHT22;9458;50.942;5.074;2022-10-29T05:47:29;15.90;99.90
18658;DHT22;9458;50.942;5.074;2022-10-29T05:50:01;15.90;99.90
18658;DHT22;9458;50.942;5.074;2022-10-29T05:52:32;15.90;99.90
18658;DHT22;9458;50.942;5.074;2022-10-29T05:55:08;15.90;99.90
18658;DHT22;9458;50.942;5.074;2022-10-29T05:57:38;15.80;99.90
18658;DHT22;9458;50.942;5.074;2022-10-29T06:00:09;15.80;99.90
18658;DHT22;9458;50.942;5.074;2022-10-29T06:02:42;15.80;99.90
18658;DHT22;9458;50.942;5.074;2022-10-29T06:05:12;15.80;99.90
18658;DHT22;9458;50.942;5.074;2022-10-29T06:07:47;15.80;99.90
18658;DHT22;9458;50.942;5.074;2022-10-29T06:10:26;15.80;99.90
18658;DHT22;9458;50.942;5.074;2022-10-29T06:13:01;15.80;99.90
18658;DHT22;9458;50.942;5.074;2022-10-29T06:15:36;15.80;99.90
18658;DHT22;9458;50.942;5.074;2022-10-29T06:18:11;15.80;99.90
18658;DHT22;9458;50.942;5.074;2022-10-29T06:20:45;15.80;99.90
18658;DHT22;9458;50.942;5.074;2022-10-29T06:23:16;15.80;99.90
18658;DHT22;9458;50.942;5.074;2022-10-29T06:25:48;15.80;99.90
18658;DHT22;9458;50.942;5.074;2022-10-29T06:28:18;15.70;99.90
18658;DHT22;9458;50.942;5.074;2022-10-29T06:30:51;15.70;99.90
18658;DHT22;9458;50.942;5.074;2022-10-29T06:33:22;15.70;99.90
18658;DHT22;9458;50.942;5.074;2022-10-29T06:35:58;15.70;99.90
18658;DHT22;9458;50.942;5.074;2022-10-29T06:38:33;15.70;99.90
18658;DHT22;9458;50.942;5.074;2022-10-29T06:41:04;15.70;99.90
18658;DHT22;9458;50.942;5.074;2022-10-29T06:43:39;15.70;99.90
18658;DHT22;9458;50.942;5.074;2022-10-29T06:46:12;15.70;99.90
18658;DHT22;9458;50.942;5.074;2022-10-29T06:48:45;15.70;99.90
18658;DHT22;9458;50.942;5.074;2022-10-29T06:51:19;15.80;99.90
18658;DHT22;9458;50.942;5.074;2022-10-29T06:53:52;15.80;99.90
18658;DHT22;9458;50.942;5.074;2022-10-29T06:56:23;15.80;99.90
18658;DHT22;9458;50.942;5.074;2022-10-29T06:59:00;15.80;99.90
18658;DHT22;9458;50.942;5.074;2022-10-29T07:01:37;15.80;99.90
18658;DHT22;9458;50.942;5.074;2022-10-29T07:04:10;15.80;99.90
18658;DHT22;9458;50.942;5.074;2022-10-29T07:06:47;15.80;99.90
18658;DHT22;9458;50.942;5.074;2022-10-29T07:09:22;15.90;99.90
18658;DHT22;9458;50.942;5.074;2022-10-29T07:11:53;15.90;99.90
18658;DHT22;9458;50.942;5.074;2022-10-29T07:14:28;15.90;99.90
18658;DHT22;9458;50.942;5.074;2022-10-29T07:17:02;15.90;99.90
18658;DHT22;9458;50.942;5.074;2022-10-29T07:19:34;16.00;99.90
18658;DHT22;9458;50.942;5.074;2022-10-29T07:22:06;16.00;99.90
18658;DHT22;9458;50.942;5.074;2022-10-29T07:24:43;16.10;99.90
18658;DHT22;9458;50.942;5.074;2022-10-29T07:27:20;16.10;99.90
18658;DHT22;9458;50.942;5.074;2022-10-29T07:29:51;16.20;99.90
18658;DHT22;9458;50.942;5.074;2022-10-29T07:32:25;16.20;99.90
18658;DHT22;9458;50.942;5.074;2022-10-29T07:34:59;16.30;99.90
18658;DHT22;9458;50.942;5.074;2022-10-29T07:37:36;16.50;99.90
18658;DHT22;9458;50.942;5.074;2022-10-29T07:40:14;16.50;99.90
18658;DHT22;9458;50.942;5.074;2022-10-29T07:42:51;16.50;99.90
18658;DHT22;9458;50.942;5.074;2022-10-29T07:45:23;16.50;99.90
18658;DHT22;9458;50.942;5.074;2022-10-29T07:48:03;16.50;99.90
18658;DHT22;9458;50.942;5.074;2022-10-29T07:50:39;16.60;99.90
18658;DHT22;9458;50.942;5.074;2022-10-29T07:53:10;16.60;99.90
18658;DHT22;9458;50.942;5.074;2022-10-29T07:55:42;16.80;99.90
18658;DHT22;9458;50.942;5.074;2022-10-29T07:58:14;17.00;99.90
18658;DHT22;9458;50.942;5.074;2022-10-29T08:00:52;17.50;99.90
18658;DHT22;9458;50.942;5.074;2022-10-29T08:03:26;18.20;99.90
18658;DHT22;9458;50.942;5.074;2022-10-29T08:05:59;18.80;99.90
18658;DHT22;9458;50.942;5.074;2022-10-29T08:08:35;19.20;99.90
18658;DHT22;9458;50.942;5.074;2022-10-29T08:11:07;19.70;99.90
18658;DHT22;9458;50.942;5.074;2022-10-29T08:13:42;20.10;99.90
18658;DHT22;9458;50.942;5.074;2022-10-29T08:16:16;20.50;99.90
18658;DHT22;9458;50.942;5.074;2022-10-29T08:18:53;20.90;99.90
18658;DHT22;9458;50.942;5.074;2022-10-29T08:21:27;21.30;99.90
18658;DHT22;9458;50.942;5.074;2022-10-29T08:24:05;21.30;99.90
18658;DHT22;9458;50.942;5.074;2022-10-29T08:26:39;21.30;99.90
18658;DHT22;9458;50.942;5.074;2022-10-29T08:29:15;21.10;99.90
18658;DHT22;9458;50.942;5.074;2022-10-29T08:31:47;20.70;99.90
18658;DHT22;9458;50.942;5.074;2022-10-29T08:34:20;20.60;99.90
18658;DHT22;9458;50.942;5.074;2022-10-29T08:36:55;20.50;99.90
18658;DHT22;9458;50.942;5.074;2022-10-29T08:39:28;20.20;99.90
18658;DHT22;9458;50.942;5.074;2022-10-29T08:42:08;20.00;99.90
18658;DHT22;9458;50.942;5.074;2022-10-29T08:47:56;19.70;99.90
18658;DHT22;9458;50.942;5.074;2022-10-29T08:50:41;19.80;99.90
18658;DHT22;9458;50.942;5.074;2022-10-29T08:53:20;20.30;99.90
18658;DHT22;9458;50.942;5.074;2022-10-29T08:55:59;21.00;99.90
18658;DHT22;9458;50.942;5.074;2022-10-29T08:58:44;21.70;99.90
18658;DHT22;9458;50.942;5.074;2022-10-29T09:01:18;21.50;99.90
18658;DHT22;9458;50.942;5.074;2022-10-29T09:03:47;21.70;99.90
18658;DHT22;9458;50.942;5.074;2022-10-29T09:06:21;22.30;99.90
18658;DHT22;9458;50.942;5.074;2022-10-29T09:09:04;23.00;99.90
18658;DHT22;9458;50.942;5.074;2022-10-29T09:11:43;23.80;99.90
18658;DHT22;9458;50.942;5.074;2022-10-29T09:14:39;23.90;99.90
18658;DHT22;9458;50.942;5.074;2022-10-29T09:17:19;23.90;99.90
18658;DHT22;9458;50.942;5.074;2022-10-29T09:20:06;23.30;99.90
18658;DHT22;9458;50.942;5.074;2022-10-29T09:22:45;22.90;99.90
18658;DHT22;9458;50.942;5.074;2022-10-29T09:25:20;22.40;99.90
18658;DHT22;9458;50.942;5.074;2022-10-29T09:27:59;22.00;99.90
18658;DHT22;9458;50.942;5.074;2022-10-29T09:30:39;21.60;99.90
18658;DHT22;9458;50.942;5.074;2022-10-29T09:33:12;21.40;99.90
18658;DHT22;9458;50.942;5.074;2022-10-29T09:35:43;21.20;99.90
18658;DHT22;9458;50.942;5.074;2022-10-29T09:38:15;21.00;99.90
18658;DHT22;9458;50.942;5.074;2022-10-29T09:40:44;20.90;99.90
18658;DHT22;9458;50.942;5.074;2022-10-29T09:43:23;20.80;99.90
18658;DHT22;9458;50.942;5.074;2022-10-29T09:46:00;20.70;99.90
18658;DHT22;9458;50.942;5.074;2022-10-29T09:48:32;20.70;99.90
18658;DHT22;9458;50.942;5.074;2022-10-29T09:51:10;20.60;99.90
18658;DHT22;9458;50.942;5.074;2022-10-29T09:53:40;20.50;99.90
18658;DHT22;9458;50.942;5.074;2022-10-29T09:56:08;20.50;99.90
18658;DHT22;9458;50.942;5.074;2022-10-29T09:58:38;20.50;99.90
18658;DHT22;9458;50.942;5.074;2022-10-29T10:01:07;20.50;99.90
18658;DHT22;9458;50.942;5.074;2022-10-29T10:03:37;20.40;99.90
18658;DHT22;9458;50.942;5.074;2022-10-29T10:06:08;20.50;99.90
18658;DHT22;9458;50.942;5.074;2022-10-29T10:08:57;20.50;99.90
18658;DHT22;9458;50.942;5.074;2022-10-29T10:11:26;20.50;99.90
18658;DHT22;9458;50.942;5.074;2022-10-29T10:13:58;20.50;99.90
18658;DHT22;9458;50.942;5.074;2022-10-29T10:16:28;20.50;99.90
18658;DHT22;9458;50.942;5.074;2022-10-29T10:18:58;20.40;99.90
18658;DHT22;9458;50.942;5.074;2022-10-29T10:21:29;20.40;99.90
18658;DHT22;9458;50.942;5.074;2022-10-29T10:24:00;20.50;99.90
18658;DHT22;9458;50.942;5.074;2022-10-29T10:26:33;20.50;99.90
18658;DHT22;9458;50.942;5.074;2022-10-29T10:29:12;20.40;99.90
18658;DHT22;9458;50.942;5.074;2022-10-29T10:31:45;20.50;99.90
18658;DHT22;9458;50.942;5.074;2022-10-29T10:34:15;20.50;99.90
18658;DHT22;9458;50.942;5.074;2022-10-29T10:36:46;20.60;99.90
18658;DHT22;9458;50.942;5.074;2022-10-29T10:39:26;20.60;99.90
18658;DHT22;9458;50.942;5.074;2022-10-29T10:41:56;20.60;99.90
18658;DHT22;9458;50.942;5.074;2022-10-29T10:44:24;20.60;99.90
18658;DHT22;9458;50.942;5.074;2022-10-29T10:46:56;20.70;99.90
18658;DHT22;9458;50.942;5.074;2022-10-29T10:49:31;20.50;99.90
18658;DHT22;9458;50.942;5.074;2022-10-29T10:52:02;20.60;99.90
18658;DHT22;9458;50.942;5.074;2022-10-29T10:54:33;20.50;99.90
18658;DHT22;9458;50.942;5.074;2022-10-29T10:57:04;20.50;99.90
18658;DHT22;9458;50.942;5.074;2022-10-29T10:59:55;20.50;99.90
18658;DHT22;9458;50.942;5.074;2022-10-29T11:02:32;20.50;99.90
18658;DHT22;9458;50.942;5.074;2022-10-29T11:05:08;20.50;99.90
18658;DHT22;9458;50.942;5.074;2022-10-29T11:07:38;20.50;99.90
18658;DHT22;9458;50.942;5.074;2022-10-29T11:10:11;20.50;99.90
18658;DHT22;9458;50.942;5.074;2022-10-29T11:12:43;20.60;99.90
18658;DHT22;9458;50.942;5.074;2022-10-29T11:15:15;20.60;99.90
18658;DHT22;9458;50.942;5.074;2022-10-29T11:17:50;20.60;99.90
18658;DHT22;9458;50.942;5.074;2022-10-29T11:20:22;20.60;99.90
18658;DHT22;9458;50.942;5.074;2022-10-29T11:22:59;20.60;99.90
18658;DHT22;9458;50.942;5.074;2022-10-29T11:25:33;20.60;99.90
18658;DHT22;9458;50.942;5.074;2022-10-29T11:28:18;20.60;99.90
18658;DHT22;9458;50.942;5.074;2022-10-29T11:30:51;20.60;99.90
18658;DHT22;9458;50.942;5.074;2022-10-29T11:33:25;20.60;99.90
18658;DHT22;9458;50.942;5.074;2022-10-29T11:36:04;20.60;99.90
18658;DHT22;9458;50.942;5.074;2022-10-29T11:38:40;20.60;99.90
18658;DHT22;9458;50.942;5.074;2022-10-29T11:41:18;20.50;99.90
18658;DHT22;9458;50.942;5.074;2022-10-29T11:43:48;20.50;99.90
18658;DHT22;9458;50.942;5.074;2022-10-29T11:46:23;20.50;99.90
18658;DHT22;9458;50.942;5.074;2022-10-29T11:49:02;20.50;99.90
18658;DHT22;9458;50.942;5.074;2022-10-29T11:51:38;20.50;99.90
18658;DHT22;9458;50.942;5.074;2022-10-29T11:54:18;20.50;99.90
18658;DHT22;9458;50.942;5.074;2022-10-29T11:56:55;20.50;99.90
18658;DHT22;9458;50.942;5.074;2022-10-29T11:59:35;20.50;99.90
18658;DHT22;9458;50.942;5.074;2022-10-29T12:02:16;20.50;99.90
18658;DHT22;9458;50.942;5.074;2022-10-29T12:04:53;20.60;99.90
18658;DHT22;9458;50.942;5.074;2022-10-29T12:07:32;20.60;99.90
18658;DHT22;9458;50.942;5.074;2022-10-29T12:10:21;20.70;99.90
18658;DHT22;9458;50.942;5.074;2022-10-29T12:12:56;20.70;99.90
18658;DHT22;9458;50.942;5.074;2022-10-29T12:15:30;20.80;99.90
18658;DHT22;9458;50.942;5.074;2022-10-29T12:18:05;20.80;99.90
18658;DHT22;9458;50.942;5.074;2022-10-29T12:20:43;20.80;99.90
18658;DHT22;9458;50.942;5.074;2022-10-29T12:23:23;20.90;99.90
18658;DHT22;9458;50.942;5.074;2022-10-29T12:26:00;20.90;99.90
18658;DHT22;9458;50.942;5.074;2022-10-29T12:28:37;20.90;99.90
18658;DHT22;9458;50.942;5.074;2022-10-29T12:31:15;20.90;99.90
18658;DHT22;9458;50.942;5.074;2022-10-29T12:33:49;20.90;99.90
18658;DHT22;9458;50.942;5.074;2022-10-29T12:36:26;20.90;99.90
18658;DHT22;9458;50.942;5.074;2022-10-29T12:38:55;20.90;99.90
18658;DHT22;9458;50.942;5.074;2022-10-29T12:41:28;20.90;99.90
18658;DHT22;9458;50.942;5.074;2022-10-29T12:44:06;20.90;99.90
18658;DHT22;9458;50.942;5.074;2022-10-29T12:46:39;20.90;99.90
18658;DHT22;9458;50.942;5.074;2022-10-29T12:49:14;20.80;99.90
18658;DHT22;9458;50.942;5.074;2022-10-29T12:58:47;20.80;99.90
18658;DHT22;9458;50.942;5.074;2022-10-29T13:04:24;20.80;99.90
18658;DHT22;9458;50.942;5.074;2022-10-29T13:07:01;20.80;99.90
18658;DHT22;9458;50.942;5.074;2022-10-29T13:09:29;20.80;99.90
18658;DHT22;9458;50.942;5.074;2022-10-29T13:12:00;20.80;99.90
18658;DHT22;9458;50.942;5.074;2022-10-29T13:14:44;20.80;99.90
18658;DHT22;9458;50.942;5.074;2022-10-29T13:17:24;20.90;99.90
18658;DHT22;9458;50.942;5.074;2022-10-29T13:19:55;20.90;99.90
18658;DHT22;9458;50.942;5.074;2022-10-29T13:25:41;20.90;99.90
18658;DHT22;9458;50.942;5.074;2022-10-29T13:28:45;20.90;99.90
18658;DHT22;9458;50.942;5.074;2022-10-29T13:31:45;21.00;99.90
18658;DHT22;9458;50.942;5.074;2022-10-29T13:34:54;21.00;99.90
18658;DHT22;9458;50.942;5.074;2022-10-29T13:43:31;21.00;99.90
18658;DHT22;9458;50.942;5.074;2022-10-29T13:49:17;21.00;99.90
18658;DHT22;9458;50.942;5.074;2022-10-29T13:51:50;21.00;99.90
18658;DHT22;9458;50.942;5.074;2022-10-29T13:54:23;21.00;99.90
18658;DHT22;9458;50.942;5.074;2022-10-29T13:56:55;21.00;99.90
18658;DHT22;9458;50.942;5.074;2022-10-29T13:59:37;21.00;99.90
18658;DHT22;9458;50.942;5.074;2022-10-29T14:02:22;21.00;99.90
18658;DHT22;9458;50.942;5.074;2022-10-29T14:05:11;21.00;99.90
18658;DHT22;9458;50.942;5.074;2022-10-29T14:07:49;21.00;99.90
18658;DHT22;9458;50.942;5.074;2022-10-29T14:10:23;20.90;99.90
18658;DHT22;9458;50.942;5.074;2022-10-29T14:12:57;21.00;99.90
18658;DHT22;9458;50.942;5.074;2022-10-29T14:15:28;20.90;99.90
18658;DHT22;9458;50.942;5.074;2022-10-29T14:18:17;20.90;99.90
18658;DHT22;9458;50.942;5.074;2022-10-29T14:20:55;20.90;99.90
18658;DHT22;9458;50.942;5.074;2022-10-29T14:23:28;20.90;99.90
18658;DHT22;9458;50.942;5.074;2022-10-29T14:26:03;20.80;99.90
18658;DHT22;9458;50.942;5.074;2022-10-29T14:28:38;20.80;99.90
18658;DHT22;9458;50.942;5.074;2022-10-29T14:31:17;20.70;99.90
18658;DHT22;9458;50.942;5.074;2022-10-29T14:34:20;20.70;99.90
18658;DHT22;9458;50.942;5.074;2022-10-29T14:37:02;20.70;99.90
18658;DHT22;9458;50.942;5.074;2022-10-29T14:39:41;20.70;99.90
18658;DHT22;9458;50.942;5.074;2022-10-29T14:42:23;20.70;99.90
18658;DHT22;9458;50.942;5.074;2022-10-29T14:44:58;20.60;99.90
18658;DHT22;9458;50.942;5.074;2022-10-29T14:47:35;20.60;99.90
18658;DHT22;9458;50.942;5.074;2022-10-29T14:50:26;20.60;99.90
18658;DHT22;9458;50.942;5.074;2022-10-29T14:53:02;20.60;99.90
18658;DHT22;9458;50.942;5.074;2022-10-29T14:55:58;20.60;99.90
18658;DHT22;9458;50.942;5.074;2022-10-29T14:58:33;20.60;99.90
18658;DHT22;9458;50.942;5.074;2022-10-29T15:01:13;20.60;99.90
18658;DHT22;9458;50.942;5.074;2022-10-29T15:03:45;20.50;99.90
18658;DHT22;9458;50.942;5.074;2022-10-29T15:06:25;20.50;99.90
18658;DHT22;9458;50.942;5.074;2022-10-29T15:09:01;20.50;99.90
18658;DHT22;9458;50.942;5.074;2022-10-29T15:11:37;20.50;99.90
18658;DHT22;9458;50.942;5.074;2022-10-29T15:14:25;20.40;99.90
18658;DHT22;9458;50.942;5.074;2022-10-29T15:17:10;20.40;99.90
18658;DHT22;9458;50.942;5.074;2022-10-29T15:19:48;20.40;99.90
18658;DHT22;9458;50.942;5.074;2022-10-29T15:22:29;20.30;99.90
18658;DHT22;9458;50.942;5.074;2022-10-29T15:25:04;20.30;99.90
18658;DHT22;9458;50.942;5.074;2022-10-29T15:27:34;20.20;99.90
18658;DHT22;9458;50.942;5.074;2022-10-29T15:30:07;20.20;99.90
18658;DHT22;9458;50.942;5.074;2022-10-29T15:33:24;20.20;99.90
18658;DHT22;9458;50.942;5.074;2022-10-29T15:36:08;20.10;99.90
18658;DHT22;9458;50.942;5.074;2022-10-29T15:42:47;20.10;99.90
18658;DHT22;9458;50.942;5.074;2022-10-29T15:45:25;20.00;99.90
18658;DHT22;9458;50.942;5.074;2022-10-29T15:48:27;20.00;99.90
18658;DHT22;9458;50.942;5.074;2022-10-29T15:51:17;19.90;99.90
18658;DHT22;9458;50.942;5.074;2022-10-29T15:54:00;19.90;99.90
18658;DHT22;9458;50.942;5.074;2022-10-29T15:56:36;19.90;99.90
18658;DHT22;9458;50.942;5.074;2022-10-29T15:59:23;19.80;99.90
18658;DHT22;9458;50.942;5.074;2022-10-29T16:01:58;19.80;99.90
18658;DHT22;9458;50.942;5.074;2022-10-29T16:04:31;19.80;99.90
18658;DHT22;9458;50.942;5.074;2022-10-29T16:07:11;19.70;99.90
18658;DHT22;9458;50.942;5.074;2022-10-29T16:09:51;19.70;99.90
18658;DHT22;9458;50.942;5.074;2022-10-29T16:12:30;19.70;99.90
18658;DHT22;9458;50.942;5.074;2022-10-29T16:15:12;19.60;99.90
18658;DHT22;9458;50.942;5.074;2022-10-29T16:17:52;19.60;99.90
18658;DHT22;9458;50.942;5.074;2022-10-29T16:20:24;19.50;99.90
18658;DHT22;9458;50.942;5.074;2022-10-29T16:22:55;19.50;99.90
18658;DHT22;9458;50.942;5.074;2022-10-29T16:25:28;19.50;99.90
18658;DHT22;9458;50.942;5.074;2022-10-29T16:28:02;19.40;99.90
18658;DHT22;9458;50.942;5.074;2022-10-29T16:30:40;19.40;99.90
18658;DHT22;9458;50.942;5.074;2022-10-29T16:33:10;19.40;99.90
18658;DHT22;9458;50.942;5.074;2022-10-29T16:35:56;19.30;99.90
18658;DHT22;9458;50.942;5.074;2022-10-29T16:41:57;19.30;99.90
18658;DHT22;9458;50.942;5.074;2022-10-29T16:44:51;19.20;99.90
18658;DHT22;9458;50.942;5.074;2022-10-29T16:50:38;19.20;99.90
18658;DHT22;9458;50.942;5.074;2022-10-29T17:07:21;19.10;99.90
18658;DHT22;9458;50.942;5.074;2022-10-29T17:19:56;18.90;99.90
18658;DHT22;9458;50.942;5.074;2022-10-29T17:22:48;18.80;99.90
18658;DHT22;9458;50.942;5.074;2022-10-29T17:25:26;18.80;99.90
18658;DHT22;9458;50.942;5.074;2022-10-29T17:28:23;18.70;99.90
18658;DHT22;9458;50.942;5.074;2022-10-29T17:34:37;18.70;99.90
18658;DHT22;9458;50.942;5.074;2022-10-29T17:47:54;18.60;99.90
18658;DHT22;9458;50.942;5.074;2022-10-29T17:54:06;18.50;99.90
18658;DHT22;9458;50.942;5.074;2022-10-29T18:24:13;18.10;99.90
18658;DHT22;9458;50.942;5.074;2022-10-29T18:26:51;18.00;99.90